sensor_id;sensor_type;location;lat;lon;timestamp;P1;durP1;ratioP1;P2;durP2;ratioP2
5026;SDS011;2532;52.480;13.354;2023-02-28T00:01:33;8.93;;;4.77;;
5026;SDS011;2532;52.480;13.354;2023-02-28T00:04:01;9.90;;;6.30;;
5026;SDS011;2532;52.480;13.354;2023-02-28T00:06:28;11.00;;;5.30;;
5026;SDS011;2532;52.480;13.354;2023-02-28T00:08:56;11.93;;;7.07;;
5026;SDS011;2532;52.480;13.354;2023-02-28T00:11:23;5.83;;;4.13;;
5026;SDS011;2532;52.480;13.354;2023-02-28T00:13:50;27.00;;;11.20;;
5026;SDS011;2532;52.480;13.354;2023-02-28T00:16:17;21.70;;;10.20;;
5026;SDS011;2532;52.480;13.354;2023-02-28T00:18:46;11.97;;;4.77;;
5026;SDS011;2532;52.480;13.354;2023-02-28T00:21:16;5.53;;;3.80;;
5026;SDS011;2532;52.480;13.354;2023-02-28T00:23:44;6.90;;;4.03;;
5026;SDS011;2532;52.480;13.354;2023-02-28T00:26:16;5.97;;;4.40;;
5026;SDS011;2532;52.480;13.354;2023-02-28T00:28:51;22.93;;;10.90;;
5026;SDS011;2532;52.480;13.354;2023-02-28T00:31:18;16.90;;;8.10;;
5026;SDS011;2532;52.480;13.354;2023-02-28T00:33:47;9.33;;;5.10;;
5026;SDS011;2532;52.480;13.354;2023-02-28T00:36:17;8.67;;;5.40;;
5026;SDS011;2532;52.480;13.354;2023-02-28T00:38:44;6.90;;;4.27;;
5026;SDS011;2532;52.480;13.354;2023-02-28T00:41:11;9.57;;;4.50;;
5026;SDS011;2532;52.480;13.354;2023-02-28T00:43:38;14.03;;;8.37;;
5026;SDS011;2532;52.480;13.354;2023-02-28T00:46:06;9.93;;;5.73;;
5026;SDS011;2532;52.480;13.354;2023-02-28T00:48:33;8.77;;;5.53;;
5026;SDS011;2532;52.480;13.354;2023-02-28T00:51:00;8.97;;;4.70;;
5026;SDS011;2532;52.480;13.354;2023-02-28T00:53:30;9.93;;;4.27;;
5026;SDS011;2532;52.480;13.354;2023-02-28T00:55:57;14.53;;;7.97;;
5026;SDS011;2532;52.480;13.354;2023-02-28T00:58:25;8.13;;;4.73;;
5026;SDS011;2532;52.480;13.354;2023-02-28T01:00:52;10.97;;;6.33;;
5026;SDS011;2532;52.480;13.354;2023-02-28T01:03:20;11.73;;;6.23;;
5026;SDS011;2532;52.480;13.354;2023-02-28T01:05:48;8.10;;;4.43;;
5026;SDS011;2532;52.480;13.354;2023-02-28T01:08:14;7.37;;;4.50;;
5026;SDS011;2532;52.480;13.354;2023-02-28T01:10:43;8.70;;;4.83;;
5026;SDS011;2532;52.480;13.354;2023-02-28T01:13:12;10.60;;;6.10;;
5026;SDS011;2532;52.480;13.354;2023-02-28T01:15:39;9.30;;;4.87;;
5026;SDS011;2532;52.480;13.354;2023-02-28T01:18:11;10.40;;;5.20;;
5026;SDS011;2532;52.480;13.354;2023-02-28T01:20:38;11.83;;;5.50;;
5026;SDS011;2532;52.480;13.354;2023-02-28T01:23:05;10.53;;;6.07;;
5026;SDS011;2532;52.480;13.354;2023-02-28T01:25:33;6.57;;;4.47;;
5026;SDS011;2532;52.480;13.354;2023-02-28T01:28:02;8.77;;;4.60;;
5026;SDS011;2532;52.480;13.354;2023-02-28T01:30:29;8.20;;;5.50;;
5026;SDS011;2532;52.480;13.354;2023-02-28T01:32:56;5.87;;;4.30;;
5026;SDS011;2532;52.480;13.354;2023-02-28T01:35:23;7.37;;;4.60;;
5026;SDS011;2532;52.480;13.354;2023-02-28T01:37:50;7.40;;;4.80;;
5026;SDS011;2532;52.480;13.354;2023-02-28T01:40:19;14.97;;;8.03;;
5026;SDS011;2532;52.480;13.354;2023-02-28T01:42:46;7.93;;;5.07;;
5026;SDS011;2532;52.480;13.354;2023-02-28T01:45:22;9.13;;;5.17;;
5026;SDS011;2532;52.480;13.354;2023-02-28T01:47:54;8.87;;;4.70;;
5026;SDS011;2532;52.480;13.354;2023-02-28T01:50:25;8.60;;;5.17;;
5026;SDS011;2532;52.480;13.354;2023-02-28T01:52:55;6.17;;;4.23;;
5026;SDS011;2532;52.480;13.354;2023-02-28T01:55:26;7.40;;;5.00;;
5026;SDS011;2532;52.480;13.354;2023-02-28T01:57:56;9.70;;;5.20;;
5026;SDS011;2532;52.480;13.354;2023-02-28T02:00:26;7.93;;;4.70;;
5026;SDS011;2532;52.480;13.354;2023-02-28T02:02:55;8.00;;;4.63;;
5026;SDS011;2532;52.480;13.354;2023-02-28T02:05:26;7.53;;;4.70;;
5026;SDS011;2532;52.480;13.354;2023-02-28T02:07:56;6.90;;;5.23;;
5026;SDS011;2532;52.480;13.354;2023-02-28T02:10:30;8.23;;;5.50;;
5026;SDS011;2532;52.480;13.354;2023-02-28T02:13:05;8.80;;;5.20;;
5026;SDS011;2532;52.480;13.354;2023-02-28T02:15:43;8.57;;;5.07;;
5026;SDS011;2532;52.480;13.354;2023-02-28T02:18:24;7.90;;;4.50;;
5026;SDS011;2532;52.480;13.354;2023-02-28T02:21:06;8.30;;;5.10;;
5026;SDS011;2532;52.480;13.354;2023-02-28T02:23:57;8.83;;;5.17;;
5026;SDS011;2532;52.480;13.354;2023-02-28T02:26:48;6.83;;;4.80;;
5026;SDS011;2532;52.480;13.354;2023-02-28T02:32:40;10.40;;;5.53;;
5026;SDS011;2532;52.480;13.354;2023-02-28T02:35:30;7.13;;;5.00;;
5026;SDS011;2532;52.480;13.354;2023-02-28T02:38:02;7.23;;;4.87;;
5026;SDS011;2532;52.480;13.354;2023-02-28T02:40:35;10.33;;;5.53;;
5026;SDS011;2532;52.480;13.354;2023-02-28T02:43:10;9.20;;;5.57;;
5026;SDS011;2532;52.480;13.354;2023-02-28T02:45:43;10.00;;;6.40;;
5026;SDS011;2532;52.480;13.354;2023-02-28T02:48:16;6.77;;;4.90;;
5026;SDS011;2532;52.480;13.354;2023-02-28T02:50:49;6.97;;;4.50;;
5026;SDS011;2532;52.480;13.354;2023-02-28T02:53:18;9.00;;;5.17;;
5026;SDS011;2532;52.480;13.354;2023-02-28T02:55:50;6.77;;;4.90;;
5026;SDS011;2532;52.480;13.354;2023-02-28T02:58:20;9.57;;;5.60;;
5026;SDS011;2532;52.480;13.354;2023-02-28T03:00:51;10.53;;;5.47;;
5026;SDS011;2532;52.480;13.354;2023-02-28T03:03:20;7.20;;;5.13;;
5026;SDS011;2532;52.480;13.354;2023-02-28T03:05:55;8.40;;;5.20;;
5026;SDS011;2532;52.480;13.354;2023-02-28T03:08:23;8.00;;;5.63;;
5026;SDS011;2532;52.480;13.354;2023-02-28T03:10:54;9.23;;;5.20;;
5026;SDS011;2532;52.480;13.354;2023-02-28T03:13:44;11.07;;;6.00;;
5026;SDS011;2532;52.480;13.354;2023-02-28T03:17:02;9.73;;;5.63;;
5026;SDS011;2532;52.480;13.354;2023-02-28T03:19:47;9.93;;;4.90;;
5026;SDS011;2532;52.480;13.354;2023-02-28T03:22:29;7.63;;;5.27;;
5026;SDS011;2532;52.480;13.354;2023-02-28T03:25:07;8.63;;;5.67;;
5026;SDS011;2532;52.480;13.354;2023-02-28T03:27:42;9.30;;;6.53;;
5026;SDS011;2532;52.480;13.354;2023-02-28T03:30:20;12.87;;;5.47;;
5026;SDS011;2532;52.480;13.354;2023-02-28T03:32:55;6.80;;;5.07;;
5026;SDS011;2532;52.480;13.354;2023-02-28T03:35:26;10.60;;;5.77;;
5026;SDS011;2532;52.480;13.354;2023-02-28T03:38:00;9.37;;;5.57;;
5026;SDS011;2532;52.480;13.354;2023-02-28T03:40:32;8.30;;;5.57;;
5026;SDS011;2532;52.480;13.354;2023-02-28T03:43:07;10.50;;;6.53;;
5026;SDS011;2532;52.480;13.354;2023-02-28T03:45:39;9.50;;;5.73;;
5026;SDS011;2532;52.480;13.354;2023-02-28T03:48:11;9.40;;;5.63;;
5026;SDS011;2532;52.480;13.354;2023-02-28T03:50:42;9.07;;;5.80;;
5026;SDS011;2532;52.480;13.354;2023-02-28T03:53:13;13.47;;;5.53;;
5026;SDS011;2532;52.480;13.354;2023-02-28T03:55:44;11.10;;;6.20;;
5026;SDS011;2532;52.480;13.354;2023-02-28T03:58:15;9.73;;;6.30;;
5026;SDS011;2532;52.480;13.354;2023-02-28T04:00:50;10.77;;;5.90;;
5026;SDS011;2532;52.480;13.354;2023-02-28T04:03:24;9.37;;;5.40;;
5026;SDS011;2532;52.480;13.354;2023-02-28T04:05:52;8.20;;;5.77;;
5026;SDS011;2532;52.480;13.354;2023-02-28T04:08:22;9.60;;;5.90;;
5026;SDS011;2532;52.480;13.354;2023-02-28T04:10:50;8.27;;;6.20;;
5026;SDS011;2532;52.480;13.354;2023-02-28T04:13:25;11.53;;;6.10;;
5026;SDS011;2532;52.480;13.354;2023-02-28T04:15:52;7.87;;;5.40;;
5026;SDS011;2532;52.480;13.354;2023-02-28T04:18:19;12.33;;;6.03;;
5026;SDS011;2532;52.480;13.354;2023-02-28T04:20:46;8.43;;;5.37;;
5026;SDS011;2532;52.480;13.354;2023-02-28T04:23:13;10.43;;;5.70;;
5026;SDS011;2532;52.480;13.354;2023-02-28T04:25:42;11.43;;;6.27;;
5026;SDS011;2532;52.480;13.354;2023-02-28T04:28:08;11.53;;;6.93;;
5026;SDS011;2532;52.480;13.354;2023-02-28T04:30:37;14.47;;;7.80;;
5026;SDS011;2532;52.480;13.354;2023-02-28T04:33:04;12.13;;;5.73;;
5026;SDS011;2532;52.480;13.354;2023-02-28T04:35:31;9.80;;;6.50;;
5026;SDS011;2532;52.480;13.354;2023-02-28T04:37:58;9.00;;;6.70;;
5026;SDS011;2532;52.480;13.354;2023-02-28T04:40:25;10.47;;;6.30;;
5026;SDS011;2532;52.480;13.354;2023-02-28T04:42:53;9.87;;;5.63;;
5026;SDS011;2532;52.480;13.354;2023-02-28T04:45:26;8.70;;;6.10;;
5026;SDS011;2532;52.480;13.354;2023-02-28T04:48:04;10.67;;;7.20;;
5026;SDS011;2532;52.480;13.354;2023-02-28T04:50:30;13.53;;;6.93;;
5026;SDS011;2532;52.480;13.354;2023-02-28T04:52:58;13.23;;;6.47;;
5026;SDS011;2532;52.480;13.354;2023-02-28T04:55:24;11.40;;;7.17;;
5026;SDS011;2532;52.480;13.354;2023-02-28T04:57:51;11.33;;;6.90;;
5026;SDS011;2532;52.480;13.354;2023-02-28T05:00:20;13.07;;;6.27;;
5026;SDS011;2532;52.480;13.354;2023-02-28T05:02:47;18.00;;;7.57;;
5026;SDS011;2532;52.480;13.354;2023-02-28T05:05:14;12.20;;;7.30;;
5026;SDS011;2532;52.480;13.354;2023-02-28T05:07:43;12.77;;;6.90;;
5026;SDS011;2532;52.480;13.354;2023-02-28T05:10:12;15.40;;;9.03;;
5026;SDS011;2532;52.480;13.354;2023-02-28T05:12:39;17.27;;;8.60;;
5026;SDS011;2532;52.480;13.354;2023-02-28T05:15:08;22.40;;;9.60;;
5026;SDS011;2532;52.480;13.354;2023-02-28T05:17:38;23.17;;;9.63;;
5026;SDS011;2532;52.480;13.354;2023-02-28T05:20:06;21.53;;;10.67;;
5026;SDS011;2532;52.480;13.354;2023-02-28T05:22:35;15.80;;;8.87;;
5026;SDS011;2532;52.480;13.354;2023-02-28T05:25:03;15.70;;;9.03;;
5026;SDS011;2532;52.480;13.354;2023-02-28T05:27:31;20.03;;;10.37;;
5026;SDS011;2532;52.480;13.354;2023-02-28T05:29:58;14.90;;;8.03;;
5026;SDS011;2532;52.480;13.354;2023-02-28T05:32:29;15.30;;;8.93;;
5026;SDS011;2532;52.480;13.354;2023-02-28T05:34:56;14.73;;;8.87;;
5026;SDS011;2532;52.480;13.354;2023-02-28T05:37:26;15.20;;;8.43;;
5026;SDS011;2532;52.480;13.354;2023-02-28T05:39:53;18.30;;;8.20;;
5026;SDS011;2532;52.480;13.354;2023-02-28T05:42:20;16.10;;;8.80;;
5026;SDS011;2532;52.480;13.354;2023-02-28T05:44:47;16.10;;;10.00;;
5026;SDS011;2532;52.480;13.354;2023-02-28T05:47:14;17.70;;;8.40;;
5026;SDS011;2532;52.480;13.354;2023-02-28T05:49:43;17.03;;;8.97;;
5026;SDS011;2532;52.480;13.354;2023-02-28T05:52:10;20.90;;;9.30;;
5026;SDS011;2532;52.480;13.354;2023-02-28T05:54:37;14.40;;;9.23;;
5026;SDS011;2532;52.480;13.354;2023-02-28T05:57:04;16.70;;;9.00;;
5026;SDS011;2532;52.480;13.354;2023-02-28T05:59:31;15.60;;;9.40;;
5026;SDS011;2532;52.480;13.354;2023-02-28T06:01:58;14.33;;;8.60;;
5026;SDS011;2532;52.480;13.354;2023-02-28T06:04:25;15.27;;;9.23;;
5026;SDS011;2532;52.480;13.354;2023-02-28T06:06:53;14.50;;;8.80;;
5026;SDS011;2532;52.480;13.354;2023-02-28T06:09:22;15.50;;;9.70;;
5026;SDS011;2532;52.480;13.354;2023-02-28T06:11:50;12.53;;;8.00;;
5026;SDS011;2532;52.480;13.354;2023-02-28T06:14:17;17.90;;;8.87;;
5026;SDS011;2532;52.480;13.354;2023-02-28T06:16:46;11.70;;;8.70;;
5026;SDS011;2532;52.480;13.354;2023-02-28T06:19:13;13.00;;;8.50;;
5026;SDS011;2532;52.480;13.354;2023-02-28T06:21:41;15.53;;;8.17;;
5026;SDS011;2532;52.480;13.354;2023-02-28T06:24:10;11.97;;;7.80;;
5026;SDS011;2532;52.480;13.354;2023-02-28T06:26:37;13.80;;;8.30;;
5026;SDS011;2532;52.480;13.354;2023-02-28T06:29:03;14.40;;;8.63;;
5026;SDS011;2532;52.480;13.354;2023-02-28T06:31:30;18.33;;;8.23;;
5026;SDS011;2532;52.480;13.354;2023-02-28T06:33:58;16.00;;;8.07;;
5026;SDS011;2532;52.480;13.354;2023-02-28T06:36:24;13.53;;;7.93;;
5026;SDS011;2532;52.480;13.354;2023-02-28T06:38:51;15.53;;;8.30;;
5026;SDS011;2532;52.480;13.354;2023-02-28T06:41:22;19.00;;;8.43;;
5026;SDS011;2532;52.480;13.354;2023-02-28T06:43:49;15.00;;;7.53;;
5026;SDS011;2532;52.480;13.354;2023-02-28T06:46:17;22.60;;;9.07;;
5026;SDS011;2532;52.480;13.354;2023-02-28T06:48:44;16.30;;;9.43;;
5026;SDS011;2532;52.480;13.354;2023-02-28T06:51:12;19.57;;;9.90;;
5026;SDS011;2532;52.480;13.354;2023-02-28T06:53:41;22.20;;;9.17;;
5026;SDS011;2532;52.480;13.354;2023-02-28T06:56:09;19.67;;;10.97;;
5026;SDS011;2532;52.480;13.354;2023-02-28T06:58:38;17.33;;;9.10;;
5026;SDS011;2532;52.480;13.354;2023-02-28T07:01:07;17.47;;;9.67;;
5026;SDS011;2532;52.480;13.354;2023-02-28T07:03:34;16.83;;;8.43;;
5026;SDS011;2532;52.480;13.354;2023-02-28T07:06:02;17.00;;;10.03;;
5026;SDS011;2532;52.480;13.354;2023-02-28T07:08:30;15.30;;;9.93;;
5026;SDS011;2532;52.480;13.354;2023-02-28T07:10:57;19.53;;;10.13;;
5026;SDS011;2532;52.480;13.354;2023-02-28T07:13:25;23.23;;;9.50;;
5026;SDS011;2532;52.480;13.354;2023-02-28T07:15:54;18.23;;;10.33;;
5026;SDS011;2532;52.480;13.354;2023-02-28T07:18:22;15.37;;;9.90;;
5026;SDS011;2532;52.480;13.354;2023-02-28T07:20:49;15.33;;;9.00;;
5026;SDS011;2532;52.480;13.354;2023-02-28T07:23:16;16.50;;;10.30;;
5026;SDS011;2532;52.480;13.354;2023-02-28T07:25:44;16.97;;;10.67;;
5026;SDS011;2532;52.480;13.354;2023-02-28T07:28:11;17.47;;;10.80;;
5026;SDS011;2532;52.480;13.354;2023-02-28T07:30:38;20.07;;;10.93;;
5026;SDS011;2532;52.480;13.354;2023-02-28T07:33:07;17.57;;;11.40;;
5026;SDS011;2532;52.480;13.354;2023-02-28T07:35:34;17.93;;;10.73;;
5026;SDS011;2532;52.480;13.354;2023-02-28T07:38:01;17.00;;;9.40;;
5026;SDS011;2532;52.480;13.354;2023-02-28T07:40:29;13.47;;;9.23;;
5026;SDS011;2532;52.480;13.354;2023-02-28T07:42:56;35.57;;;14.73;;
5026;SDS011;2532;52.480;13.354;2023-02-28T07:45:25;18.10;;;9.57;;
5026;SDS011;2532;52.480;13.354;2023-02-28T07:47:53;18.00;;;8.50;;
5026;SDS011;2532;52.480;13.354;2023-02-28T07:50:23;13.53;;;8.57;;
5026;SDS011;2532;52.480;13.354;2023-02-28T07:52:50;17.23;;;9.43;;
5026;SDS011;2532;52.480;13.354;2023-02-28T07:55:17;11.60;;;7.23;;
5026;SDS011;2532;52.480;13.354;2023-02-28T07:57:43;15.67;;;8.87;;
5026;SDS011;2532;52.480;13.354;2023-02-28T08:00:11;15.83;;;9.50;;
5026;SDS011;2532;52.480;13.354;2023-02-28T08:02:39;15.37;;;8.60;;
5026;SDS011;2532;52.480;13.354;2023-02-28T08:05:06;14.53;;;8.00;;
5026;SDS011;2532;52.480;13.354;2023-02-28T08:07:35;11.73;;;7.37;;
5026;SDS011;2532;52.480;13.354;2023-02-28T08:10:02;17.50;;;7.40;;
5026;SDS011;2532;52.480;13.354;2023-02-28T08:12:30;14.70;;;6.60;;
5026;SDS011;2532;52.480;13.354;2023-02-28T08:14:57;11.73;;;6.50;;
5026;SDS011;2532;52.480;13.354;2023-02-28T08:17:24;12.83;;;6.40;;
5026;SDS011;2532;52.480;13.354;2023-02-28T08:19:51;11.57;;;6.17;;
5026;SDS011;2532;52.480;13.354;2023-02-28T08:22:18;8.50;;;5.57;;
5026;SDS011;2532;52.480;13.354;2023-02-28T08:24:46;11.13;;;7.67;;
5026;SDS011;2532;52.480;13.354;2023-02-28T08:27:14;9.90;;;6.03;;
5026;SDS011;2532;52.480;13.354;2023-02-28T08:29:41;7.10;;;5.30;;
5026;SDS011;2532;52.480;13.354;2023-02-28T08:32:08;11.93;;;5.83;;
5026;SDS011;2532;52.480;13.354;2023-02-28T08:34:35;8.27;;;4.90;;
5026;SDS011;2532;52.480;13.354;2023-02-28T08:37:04;9.50;;;5.23;;
5026;SDS011;2532;52.480;13.354;2023-02-28T08:39:33;8.07;;;5.30;;
5026;SDS011;2532;52.480;13.354;2023-02-28T08:42:03;7.93;;;4.93;;
5026;SDS011;2532;52.480;13.354;2023-02-28T08:44:30;6.60;;;4.80;;
5026;SDS011;2532;52.480;13.354;2023-02-28T08:46:57;9.70;;;4.50;;
5026;SDS011;2532;52.480;13.354;2023-02-28T08:49:24;8.80;;;5.10;;
5026;SDS011;2532;52.480;13.354;2023-02-28T08:51:51;6.57;;;4.57;;
5026;SDS011;2532;52.480;13.354;2023-02-28T08:54:20;9.10;;;6.27;;
5026;SDS011;2532;52.480;13.354;2023-02-28T08:56:48;11.50;;;4.90;;
5026;SDS011;2532;52.480;13.354;2023-02-28T08:59:16;6.73;;;4.80;;
5026;SDS011;2532;52.480;13.354;2023-02-28T09:01:43;7.07;;;5.10;;
5026;SDS011;2532;52.480;13.354;2023-02-28T09:04:10;10.03;;;5.60;;
5026;SDS011;2532;52.480;13.354;2023-02-28T09:06:37;6.23;;;4.33;;
5026;SDS011;2532;52.480;13.354;2023-02-28T09:09:04;6.67;;;4.60;;
5026;SDS011;2532;52.480;13.354;2023-02-28T09:11:32;6.60;;;4.23;;
5026;SDS011;2532;52.480;13.354;2023-02-28T09:14:00;9.07;;;4.83;;
5026;SDS011;2532;52.480;13.354;2023-02-28T09:16:30;8.07;;;5.40;;
5026;SDS011;2532;52.480;13.354;2023-02-28T09:18:58;8.63;;;4.47;;
5026;SDS011;2532;52.480;13.354;2023-02-28T09:21:25;9.10;;;5.07;;
5026;SDS011;2532;52.480;13.354;2023-02-28T09:23:52;4.57;;;4.03;;
5026;SDS011;2532;52.480;13.354;2023-02-28T09:26:19;6.97;;;4.33;;
5026;SDS011;2532;52.480;13.354;2023-02-28T09:28:48;5.47;;;4.33;;
5026;SDS011;2532;52.480;13.354;2023-02-28T09:31:16;6.53;;;4.80;;
5026;SDS011;2532;52.480;13.354;2023-02-28T09:33:48;9.90;;;5.03;;
5026;SDS011;2532;52.480;13.354;2023-02-28T09:36:15;5.40;;;3.80;;
5026;SDS011;2532;52.480;13.354;2023-02-28T09:38:43;9.00;;;5.70;;
5026;SDS011;2532;52.480;13.354;2023-02-28T09:41:12;7.60;;;4.67;;
5026;SDS011;2532;52.480;13.354;2023-02-28T09:43:41;9.13;;;5.53;;
5026;SDS011;2532;52.480;13.354;2023-02-28T09:46:14;7.40;;;4.03;;
5026;SDS011;2532;52.480;13.354;2023-02-28T09:48:53;7.30;;;4.20;;
5026;SDS011;2532;52.480;13.354;2023-02-28T09:51:30;6.80;;;4.50;;
5026;SDS011;2532;52.480;13.354;2023-02-28T09:54:08;10.13;;;5.77;;
5026;SDS011;2532;52.480;13.354;2023-02-28T09:56:42;6.47;;;4.80;;
5026;SDS011;2532;52.480;13.354;2023-02-28T09:59:13;11.80;;;5.20;;
5026;SDS011;2532;52.480;13.354;2023-02-28T10:01:49;8.23;;;4.63;;
5026;SDS011;2532;52.480;13.354;2023-02-28T10:04:28;6.70;;;4.97;;
5026;SDS011;2532;52.480;13.354;2023-02-28T10:07:04;7.50;;;4.40;;
5026;SDS011;2532;52.480;13.354;2023-02-28T10:09:42;7.03;;;4.37;;
5026;SDS011;2532;52.480;13.354;2023-02-28T10:12:12;7.80;;;4.80;;
5026;SDS011;2532;52.480;13.354;2023-02-28T10:14:43;6.80;;;5.70;;
5026;SDS011;2532;52.480;13.354;2023-02-28T10:17:14;5.70;;;3.83;;
5026;SDS011;2532;52.480;13.354;2023-02-28T10:19:49;10.13;;;4.83;;
5026;SDS011;2532;52.480;13.354;2023-02-28T10:22:25;10.37;;;6.13;;
5026;SDS011;2532;52.480;13.354;2023-02-28T10:24:55;9.30;;;5.20;;
5026;SDS011;2532;52.480;13.354;2023-02-28T10:27:29;10.67;;;5.00;;
5026;SDS011;2532;52.480;13.354;2023-02-28T10:29:58;9.97;;;4.60;;
5026;SDS011;2532;52.480;13.354;2023-02-28T10:32:27;7.60;;;5.57;;
5026;SDS011;2532;52.480;13.354;2023-02-28T10:34:59;13.60;;;4.80;;
5026;SDS011;2532;52.480;13.354;2023-02-28T10:37:29;10.40;;;4.77;;
5026;SDS011;2532;52.480;13.354;2023-02-28T10:39:57;9.83;;;4.73;;
5026;SDS011;2532;52.480;13.354;2023-02-28T10:42:24;11.30;;;4.30;;
5026;SDS011;2532;52.480;13.354;2023-02-28T10:45:04;9.07;;;6.00;;
5026;SDS011;2532;52.480;13.354;2023-02-28T10:47:37;8.23;;;4.80;;
5026;SDS011;2532;52.480;13.354;2023-02-28T10:50:30;7.33;;;3.83;;
5026;SDS011;2532;52.480;13.354;2023-02-28T10:53:14;7.57;;;5.57;;
5026;SDS011;2532;52.480;13.354;2023-02-28T10:55:55;7.97;;;4.80;;
5026;SDS011;2532;52.480;13.354;2023-02-28T10:58:24;7.90;;;4.80;;
5026;SDS011;2532;52.480;13.354;2023-02-28T11:00:52;6.67;;;4.70;;
5026;SDS011;2532;52.480;13.354;2023-02-28T11:03:25;6.50;;;4.90;;
5026;SDS011;2532;52.480;13.354;2023-02-28T11:06:15;8.50;;;5.03;;
5026;SDS011;2532;52.480;13.354;2023-02-28T11:08:47;11.33;;;7.10;;
5026;SDS011;2532;52.480;13.354;2023-02-28T11:11:16;8.47;;;5.07;;
5026;SDS011;2532;52.480;13.354;2023-02-28T11:13:45;9.73;;;4.50;;
5026;SDS011;2532;52.480;13.354;2023-02-28T11:16:15;7.17;;;4.40;;
5026;SDS011;2532;52.480;13.354;2023-02-28T11:18:42;8.10;;;4.40;;
5026;SDS011;2532;52.480;13.354;2023-02-28T11:21:20;5.10;;;3.77;;
5026;SDS011;2532;52.480;13.354;2023-02-28T11:23:50;8.73;;;4.10;;
5026;SDS011;2532;52.480;13.354;2023-02-28T11:26:36;6.60;;;4.40;;
5026;SDS011;2532;52.480;13.354;2023-02-28T11:29:12;9.40;;;4.00;;
5026;SDS011;2532;52.480;13.354;2023-02-28T11:31:57;11.13;;;4.20;;
5026;SDS011;2532;52.480;13.354;2023-02-28T11:34:30;6.53;;;4.70;;
5026;SDS011;2532;52.480;13.354;2023-02-28T11:36:59;5.53;;;4.37;;
5026;SDS011;2532;52.480;13.354;2023-02-28T11:39:30;7.17;;;4.37;;
5026;SDS011;2532;52.480;13.354;2023-02-28T11:45:15;4.60;;;4.10;;
5026;SDS011;2532;52.480;13.354;2023-02-28T11:47:56;5.63;;;4.57;;
5026;SDS011;2532;52.480;13.354;2023-02-28T11:50:36;7.23;;;4.70;;
5026;SDS011;2532;52.480;13.354;2023-02-28T11:53:17;6.60;;;4.03;;
5026;SDS011;2532;52.480;13.354;2023-02-28T11:55:49;7.10;;;4.20;;
5026;SDS011;2532;52.480;13.354;2023-02-28T12:01:15;8.73;;;6.87;;
5026;SDS011;2532;52.480;13.354;2023-02-28T12:03:58;5.60;;;4.10;;
5026;SDS011;2532;52.480;13.354;2023-02-28T12:06:38;9.67;;;5.23;;
5026;SDS011;2532;52.480;13.354;2023-02-28T12:09:17;26.47;;;11.93;;
5026;SDS011;2532;52.480;13.354;2023-02-28T12:12:00;19.60;;;5.73;;
5026;SDS011;2532;52.480;13.354;2023-02-28T12:14:42;10.83;;;5.30;;
5026;SDS011;2532;52.480;13.354;2023-02-28T12:17:32;12.73;;;4.57;;
5026;SDS011;2532;52.480;13.354;2023-02-28T12:20:13;11.40;;;4.57;;
5026;SDS011;2532;52.480;13.354;2023-02-28T12:22:52;7.23;;;5.40;;
5026;SDS011;2532;52.480;13.354;2023-02-28T12:25:40;7.80;;;5.80;;
5026;SDS011;2532;52.480;13.354;2023-02-28T12:28:17;8.30;;;5.90;;
5026;SDS011;2532;52.480;13.354;2023-02-28T12:30:49;5.20;;;3.93;;
5026;SDS011;2532;52.480;13.354;2023-02-28T12:33:21;9.33;;;6.07;;
5026;SDS011;2532;52.480;13.354;2023-02-28T12:35:52;7.67;;;4.93;;
5026;SDS011;2532;52.480;13.354;2023-02-28T12:38:22;8.17;;;5.77;;
5026;SDS011;2532;52.480;13.354;2023-02-28T12:40:54;9.87;;;5.80;;
5026;SDS011;2532;52.480;13.354;2023-02-28T12:43:27;8.07;;;5.60;;
5026;SDS011;2532;52.480;13.354;2023-02-28T12:45:59;9.03;;;5.03;;
5026;SDS011;2532;52.480;13.354;2023-02-28T12:48:36;9.37;;;5.53;;
5026;SDS011;2532;52.480;13.354;2023-02-28T12:51:06;9.10;;;5.40;;
5026;SDS011;2532;52.480;13.354;2023-02-28T12:53:35;6.33;;;5.00;;
5026;SDS011;2532;52.480;13.354;2023-02-28T12:56:15;6.70;;;5.13;;
5026;SDS011;2532;52.480;13.354;2023-02-28T12:58:45;7.43;;;4.90;;
5026;SDS011;2532;52.480;13.354;2023-02-28T13:01:42;7.27;;;5.07;;
5026;SDS011;2532;52.480;13.354;2023-02-28T13:04:38;8.87;;;5.87;;
5026;SDS011;2532;52.480;13.354;2023-02-28T13:07:32;8.90;;;5.03;;
5026;SDS011;2532;52.480;13.354;2023-02-28T13:10:17;22.27;;;9.97;;
5026;SDS011;2532;52.480;13.354;2023-02-28T13:12:51;8.23;;;5.30;;
5026;SDS011;2532;52.480;13.354;2023-02-28T13:15:21;8.63;;;5.23;;
5026;SDS011;2532;52.480;13.354;2023-02-28T13:17:51;7.13;;;4.63;;
5026;SDS011;2532;52.480;13.354;2023-02-28T13:20:20;8.03;;;5.37;;
5026;SDS011;2532;52.480;13.354;2023-02-28T13:22:49;7.10;;;4.73;;
5026;SDS011;2532;52.480;13.354;2023-02-28T13:31:32;10.13;;;5.23;;
5026;SDS011;2532;52.480;13.354;2023-02-28T13:34:20;10.00;;;5.27;;
5026;SDS011;2532;52.480;13.354;2023-02-28T13:36:47;8.53;;;5.13;;
5026;SDS011;2532;52.480;13.354;2023-02-28T13:45:21;8.10;;;4.63;;
5026;SDS011;2532;52.480;13.354;2023-02-28T13:48:00;7.60;;;4.57;;
5026;SDS011;2532;52.480;13.354;2023-02-28T13:50:30;7.90;;;4.13;;
5026;SDS011;2532;52.480;13.354;2023-02-28T13:53:26;9.33;;;5.63;;
5026;SDS011;2532;52.480;13.354;2023-02-28T13:56:27;6.30;;;4.57;;
5026;SDS011;2532;52.480;13.354;2023-02-28T13:59:12;5.40;;;4.30;;
5026;SDS011;2532;52.480;13.354;2023-02-28T14:01:51;5.90;;;4.90;;
5026;SDS011;2532;52.480;13.354;2023-02-28T14:04:40;8.73;;;5.33;;
5026;SDS011;2532;52.480;13.354;2023-02-28T14:07:18;7.33;;;4.93;;
5026;SDS011;2532;52.480;13.354;2023-02-28T14:09:50;9.43;;;5.50;;
5026;SDS011;2532;52.480;13.354;2023-02-28T14:15:27;7.33;;;4.73;;
5026;SDS011;2532;52.480;13.354;2023-02-28T14:18:02;7.63;;;5.00;;
5026;SDS011;2532;52.480;13.354;2023-02-28T14:20:38;8.80;;;5.60;;
5026;SDS011;2532;52.480;13.354;2023-02-28T14:23:09;9.10;;;5.67;;
5026;SDS011;2532;52.480;13.354;2023-02-28T14:25:44;7.10;;;4.50;;
5026;SDS011;2532;52.480;13.354;2023-02-28T14:28:20;7.20;;;5.53;;
5026;SDS011;2532;52.480;13.354;2023-02-28T14:30:57;11.03;;;5.90;;
5026;SDS011;2532;52.480;13.354;2023-02-28T14:33:44;8.33;;;5.30;;
5026;SDS011;2532;52.480;13.354;2023-02-28T14:36:26;16.73;;;5.20;;
5026;SDS011;2532;52.480;13.354;2023-02-28T14:38:59;8.77;;;4.70;;
5026;SDS011;2532;52.480;13.354;2023-02-28T14:41:31;8.77;;;4.73;;
5026;SDS011;2532;52.480;13.354;2023-02-28T14:44:01;6.60;;;5.07;;
5026;SDS011;2532;52.480;13.354;2023-02-28T14:46:32;12.30;;;7.60;;
5026;SDS011;2532;52.480;13.354;2023-02-28T14:49:03;13.00;;;5.00;;
5026;SDS011;2532;52.480;13.354;2023-02-28T14:51:33;7.43;;;4.60;;
5026;SDS011;2532;52.480;13.354;2023-02-28T14:54:01;10.03;;;5.10;;
5026;SDS011;2532;52.480;13.354;2023-02-28T14:56:30;8.97;;;4.57;;
5026;SDS011;2532;52.480;13.354;2023-02-28T14:59:02;11.57;;;5.20;;
5026;SDS011;2532;52.480;13.354;2023-02-28T15:01:30;6.87;;;5.13;;
5026;SDS011;2532;52.480;13.354;2023-02-28T15:03:59;7.00;;;5.63;;
5026;SDS011;2532;52.480;13.354;2023-02-28T15:06:31;8.97;;;5.03;;
5026;SDS011;2532;52.480;13.354;2023-02-28T15:09:07;13.73;;;5.73;;
5026;SDS011;2532;52.480;13.354;2023-02-28T15:11:35;8.00;;;5.27;;
5026;SDS011;2532;52.480;13.354;2023-02-28T15:14:03;10.57;;;5.80;;
5026;SDS011;2532;52.480;13.354;2023-02-28T15:16:31;6.93;;;5.23;;
5026;SDS011;2532;52.480;13.354;2023-02-28T15:19:01;14.20;;;5.50;;
5026;SDS011;2532;52.480;13.354;2023-02-28T15:21:31;6.60;;;5.40;;
5026;SDS011;2532;52.480;13.354;2023-02-28T15:24:02;8.00;;;5.27;;
5026;SDS011;2532;52.480;13.354;2023-02-28T15:26:33;7.53;;;5.60;;
5026;SDS011;2532;52.480;13.354;2023-02-28T15:29:04;8.30;;;5.37;;
5026;SDS011;2532;52.480;13.354;2023-02-28T15:31:33;6.17;;;4.63;;
5026;SDS011;2532;52.480;13.354;2023-02-28T15:34:12;9.03;;;5.60;;
5026;SDS011;2532;52.480;13.354;2023-02-28T15:36:46;8.53;;;5.23;;
5026;SDS011;2532;52.480;13.354;2023-02-28T15:39:23;9.40;;;5.00;;
5026;SDS011;2532;52.480;13.354;2023-02-28T15:41:54;7.90;;;5.33;;
5026;SDS011;2532;52.480;13.354;2023-02-28T15:44:36;10.30;;;5.20;;
5026;SDS011;2532;52.480;13.354;2023-02-28T15:47:04;8.20;;;5.90;;